Station Historical Data
Daily Summary for April 13, 2017 Units:  Both    English   Metric
« Previous Day
Next Day »
Daily Weekly Monthly Yearly Custom
  High: Low: Average:
Temperature: 53.8 °F /  12.1 °C 28.5 °F /  -1.9 °C 42.4 °F /  5.8 °C
Dew Point: 34.7 °F /  1.5 °C 24.6 °F /  -4.1 °C 29.7 °F /  -1.3 °C
Humidity: 90% 41% 63%
Wind Speed: 7.0mph /  11.3km/h - 1.2mph /  1.9km/h
Wind Gust: 9.0mph /  14.5km/h - -
Wind- - SW
Pressure: 30.55 in /  1034.4 hPa 30.39 in /  1029 hPa -
Precipitation: 0.00 in /  0 mm    
Historical Graphs
 
 
Tabular Data for April 13, 2017
Time Temperature Dew Point Pressure Wind Wind Speed Wind Gust Humidity Rainfall Rate (Hourly)
00:04 38.3 °F /  3.5 °C 33.3 °F /  0.7 °C 30.44in /  1030.7hPa WNW 2.0mph /  3.2km/h 4.0mph /  6.4km/h 82% 0.00in /  0mm
00:09 38.2 °F /  3.4 °C 33.2 °F /  0.7 °C 30.44in /  1030.7hPa West 3.0mph /  4.8km/h 6.0mph /  9.7km/h 82% 0.00in /  0mm
00:14 38.4 °F /  3.6 °C 33.1 °F /  0.6 °C 30.44in /  1030.7hPa West 2.0mph /  3.2km/h 5.0mph /  8km/h 81% 0.00in /  0mm
00:19 38.5 °F /  3.6 °C 32.6 °F /  0.3 °C 30.44in /  1030.7hPa WNW 2.0mph /  3.2km/h 5.0mph /  8km/h 79% 0.00in /  0mm
00:24 38.6 °F /  3.7 °C 32.3 °F /  0.2 °C 30.44in /  1030.7hPa NW 5.0mph /  8km/h 6.0mph /  9.7km/h 78% 0.00in /  0mm
00:29 38.7 °F /  3.7 °C 32.1 °F /  0.1 °C 30.44in /  1030.7hPa WNW 2.0mph /  3.2km/h 6.0mph /  9.7km/h 77% 0.00in /  0mm
00:34 38.7 °F /  3.7 °C 31.8 °F /  -0.1 °C 30.45in /  1031hPa NW 3.0mph /  4.8km/h 6.0mph /  9.7km/h 76% 0.00in /  0mm
00:39 38.6 °F /  3.7 °C 31.4 °F /  -0.3 °C 30.45in /  1031hPa NW 3.0mph /  4.8km/h 7.0mph /  11.3km/h 75% 0.00in /  0mm
00:44 38.5 °F /  3.6 °C 31.3 °F /  -0.4 °C 30.45in /  1031hPa NW 3.0mph /  4.8km/h 7.0mph /  11.3km/h 75% 0.00in /  0mm
00:49 38.2 °F /  3.4 °C 30.6 °F /  -0.8 °C 30.45in /  1031hPa NW 3.0mph /  4.8km/h 6.0mph /  9.7km/h 74% 0.00in /  0mm
00:54 38.2 °F /  3.4 °C 30.6 °F /  -0.8 °C 30.45in /  1031hPa NW 3.0mph /  4.8km/h 5.0mph /  8km/h 74% 0.00in /  0mm
00:59 38.0 °F /  3.3 °C 30.1 °F /  -1.1 °C 30.45in /  1031hPa NW 2.0mph /  3.2km/h 5.0mph /  8km/h 73% 0.00in /  0mm
01:04 37.7 °F /  3.2 °C 30.2 °F /  -1 °C 30.45in /  1031hPa NW 2.0mph /  3.2km/h 6.0mph /  9.7km/h 74% 0.00in /  0mm
01:09 37.6 °F /  3.1 °C 30.1 °F /  -1.1 °C 30.45in /  1031hPa NW 2.0mph /  3.2km/h 6.0mph /  9.7km/h 74% 0.00in /  0mm
01:14 37.5 °F /  3.1 °C 30.0 °F /  -1.1 °C 30.45in /  1031hPa WNW 2.0mph /  3.2km/h 5.0mph /  8km/h 74% 0.00in /  0mm
01:19 37.2 °F /  2.9 °C 29.7 °F /  -1.3 °C 30.45in /  1031hPa NW 1.0mph /  1.6km/h 5.0mph /  8km/h 74% 0.00in /  0mm
01:24 37.0 °F /  2.8 °C 29.5 °F /  -1.4 °C 30.45in /  1031hPa Calm   2.0mph /  3.2km/h 74% 0.00in /  0mm
01:29 36.6 °F /  2.6 °C 29.4 °F /  -1.4 °C 30.45in /  1031hPa Calm     75% 0.00in /  0mm
01:34 36.2 °F /  2.3 °C 29.0 °F /  -1.7 °C 30.45in /  1031hPa NW 1.0mph /  1.6km/h 2.0mph /  3.2km/h 75% 0.00in /  0mm
01:39 36.2 °F /  2.3 °C 29.4 °F /  -1.4 °C 30.45in /  1031hPa NW 1.0mph /  1.6km/h 3.0mph /  4.8km/h 76% 0.00in /  0mm
01:44 36.1 °F /  2.3 °C 29.3 °F /  -1.5 °C 30.45in /  1031hPa NW 1.0mph /  1.6km/h 3.0mph /  4.8km/h 76% 0.00in /  0mm
01:49 36.0 °F /  2.2 °C 29.2 °F /  -1.6 °C 30.44in /  1030.7hPa Calm   3.0mph /  4.8km/h 76% 0.00in /  0mm
01:54 35.7 °F /  2.1 °C 28.9 °F /  -1.7 °C 30.44in /  1030.7hPa Calm   2.0mph /  3.2km/h 76% 0.00in /  0mm
01:59 35.2 °F /  1.8 °C 28.7 °F /  -1.8 °C 30.44in /  1030.7hPa Calm   1.0mph /  1.6km/h 77% 0.00in /  0mm
02:04 34.6 °F /  1.4 °C 28.4 °F /  -2 °C 30.44in /  1030.7hPa Calm     78% 0.00in /  0mm
02:09 34.3 °F /  1.3 °C 28.2 °F /  -2.1 °C 30.44in /  1030.7hPa Calm     78% 0.00in /  0mm
02:14 34.0 °F /  1.1 °C 28.2 °F /  -2.1 °C 30.44in /  1030.7hPa Calm     79% 0.00in /  0mm
02:19 33.7 °F /  0.9 °C 27.9 °F /  -2.3 °C 30.44in /  1030.7hPa Calm     79% 0.00in /  0mm
02:24 33.6 °F /  0.9 °C 28.1 °F /  -2.2 °C 30.44in /  1030.7hPa Calm     80% 0.00in /  0mm
02:29 33.5 °F /  0.8 °C 28.0 °F /  -2.2 °C 30.45in /  1031hPa Calm     80% 0.00in /  0mm
02:39 33.0 °F /  0.6 °C 27.8 °F /  -2.3 °C 30.44in /  1030.7hPa Calm     81% 0.00in /  0mm
02:44 32.7 °F /  0.4 °C 27.8 °F /  -2.3 °C 30.45in /  1031hPa Calm     82% 0.00in /  0mm
02:49 32.5 °F /  0.3 °C 27.6 °F /  -2.4 °C 30.45in /  1031hPa Calm     82% 0.00in /  0mm
02:54 32.4 °F /  0.2 °C 27.5 °F /  -2.5 °C 30.45in /  1031hPa Calm     82% 0.00in /  0mm
02:59 32.3 °F /  0.2 °C 27.7 °F /  -2.4 °C 30.45in /  1031hPa Calm     83% 0.00in /  0mm
03:04 32.4 °F /  0.2 °C 27.8 °F /  -2.3 °C 30.45in /  1031hPa Calm     83% 0.00in /  0mm
03:09 32.3 °F /  0.2 °C 27.7 °F /  -2.4 °C 30.45in /  1031hPa Calm     83% 0.00in /  0mm
03:14 32.3 °F /  0.2 °C 27.7 °F /  -2.4 °C 30.45in /  1031hPa Calm     83% 0.00in /  0mm
03:19 32.3 °F /  0.2 °C 27.7 °F /  -2.4 °C 30.45in /  1031hPa Calm     83% 0.00in /  0mm
03:24 32.2 °F /  0.1 °C 27.6 °F /  -2.4 °C 30.46in /  1031.4hPa Calm     83% 0.00in /  0mm
03:29 32.1 °F /  0.1 °C 27.5 °F /  -2.5 °C 30.45in /  1031hPa Calm     83% 0.00in /  0mm
03:34 32.1 °F /  0.1 °C 27.5 °F /  -2.5 °C 30.46in /  1031.4hPa NW 2.0mph /  3.2km/h 2.0mph /  3.2km/h 83% 0.00in /  0mm
03:39 32.0 °F /  0 °C 27.4 °F /  -2.6 °C 30.46in /  1031.4hPa Calm   2.0mph /  3.2km/h 83% 0.00in /  0mm
03:44 31.8 °F /  -0.1 °C 27.2 °F /  -2.7 °C 30.46in /  1031.4hPa Calm     83% 0.00in /  0mm
03:49 31.7 °F /  -0.2 °C 27.1 °F /  -2.7 °C 30.46in /  1031.4hPa Calm     83% 0.00in /  0mm
03:54 31.5 °F /  -0.3 °C 26.9 °F /  -2.8 °C 30.46in /  1031.4hPa Calm     83% 0.00in /  0mm
03:59 31.4 °F /  -0.3 °C 26.8 °F /  -2.9 °C 30.46in /  1031.4hPa Calm     83% 0.00in /  0mm
04:04 31.3 °F /  -0.4 °C 26.7 °F /  -2.9 °C 30.46in /  1031.4hPa Calm     83% 0.00in /  0mm
04:09 31.3 °F /  -0.4 °C 26.7 °F /  -2.9 °C 30.46in /  1031.4hPa Calm     83% 0.00in /  0mm
04:14 31.1 °F /  -0.5 °C 26.5 °F /  -3.1 °C 30.47in /  1031.7hPa Calm     83% 0.00in /  0mm
04:19 31.0 °F /  -0.6 °C 26.4 °F /  -3.1 °C 30.46in /  1031.4hPa Calm     83% 0.00in /  0mm
04:24 30.9 °F /  -0.6 °C 26.3 °F /  -3.2 °C 30.46in /  1031.4hPa Calm     83% 0.00in /  0mm
04:29 30.8 °F /  -0.7 °C 26.2 °F /  -3.2 °C 30.46in /  1031.4hPa Calm     83% 0.00in /  0mm
04:34 30.7 °F /  -0.7 °C 26.1 °F /  -3.3 °C 30.47in /  1031.7hPa Calm     83% 0.00in /  0mm
04:39 30.6 °F /  -0.8 °C 26.1 °F /  -3.3 °C 30.47in /  1031.7hPa Calm     83% 0.00in /  0mm
04:44 30.6 °F /  -0.8 °C 26.1 °F /  -3.3 °C 30.47in /  1031.7hPa Calm     83% 0.00in /  0mm
04:49 30.4 °F /  -0.9 °C 25.9 °F /  -3.4 °C 30.47in /  1031.7hPa Calm     83% 0.00in /  0mm
04:54 30.4 °F /  -0.9 °C 25.9 °F /  -3.4 °C 30.47in /  1031.7hPa Calm     83% 0.00in /  0mm
04:59 30.4 °F /  -0.9 °C 26.1 °F /  -3.3 °C 30.47in /  1031.7hPa Calm     84% 0.00in /  0mm
05:04 30.3 °F /  -0.9 °C 26.0 °F /  -3.3 °C 30.47in /  1031.7hPa Calm     84% 0.00in /  0mm
05:09 30.2 °F /  -1 °C 25.9 °F /  -3.4 °C 30.47in /  1031.7hPa Calm     84% 0.00in /  0mm
05:14 30.1 °F /  -1.1 °C 25.8 °F /  -3.4 °C 30.47in /  1031.7hPa Calm     84% 0.00in /  0mm
05:19 30.1 °F /  -1.1 °C 25.8 °F /  -3.4 °C 30.47in /  1031.7hPa Calm     84% 0.00in /  0mm
05:24 29.9 °F /  -1.2 °C 25.7 °F /  -3.5 °C 30.47in /  1031.7hPa Calm     84% 0.00in /  0mm
05:29 29.8 °F /  -1.2 °C 25.6 °F /  -3.6 °C 30.47in /  1031.7hPa Calm     84% 0.00in /  0mm
05:34 29.7 °F /  -1.3 °C 25.5 °F /  -3.6 °C 30.47in /  1031.7hPa Calm     84% 0.00in /  0mm
05:39 29.5 °F /  -1.4 °C 25.3 °F /  -3.7 °C 30.47in /  1031.7hPa Calm     84% 0.00in /  0mm
05:44 29.4 °F /  -1.4 °C 25.2 °F /  -3.8 °C 30.47in /  1031.7hPa Calm     84% 0.00in /  0mm
05:49 29.3 °F /  -1.5 °C 25.1 °F /  -3.8 °C 30.47in /  1031.7hPa Calm     84% 0.00in /  0mm
05:54 29.2 °F /  -1.6 °C 25.0 °F /  -3.9 °C 30.47in /  1031.7hPa Calm     84% 0.00in /  0mm
05:59 29.2 °F /  -1.6 °C 25.0 °F /  -3.9 °C 30.47in /  1031.7hPa Calm     84% 0.00in /  0mm
06:04 29.1 °F /  -1.6 °C 24.9 °F /  -3.9 °C 30.47in /  1031.7hPa Calm     84% 0.00in /  0mm
06:09 29.1 °F /  -1.6 °C 25.2 °F /  -3.8 °C 30.47in /  1031.7hPa Calm     85% 0.00in /  0mm
06:14 29.1 °F /  -1.6 °C 25.2 °F /  -3.8 °C 30.47in /  1031.7hPa Calm     85% 0.00in /  0mm
06:19 29.0 °F /  -1.7 °C 25.1 °F /  -3.8 °C 30.48in /  1032.1hPa Calm     85% 0.00in /  0mm
06:24 29.0 °F /  -1.7 °C 25.1 °F /  -3.8 °C 30.48in /  1032.1hPa Calm     85% 0.00in /  0mm
06:29 28.9 °F /  -1.7 °C 25.0 °F /  -3.9 °C 30.48in /  1032.1hPa Calm     85% 0.00in /  0mm
06:34 28.8 °F /  -1.8 °C 24.9 °F /  -3.9 °C 30.48in /  1032.1hPa Calm     85% 0.00in /  0mm
06:39 28.7 °F /  -1.8 °C 24.8 °F /  -4 °C 30.48in /  1032.1hPa Calm     85% 0.00in /  0mm
06:44 28.7 °F /  -1.8 °C 24.8 °F /  -4 °C 30.48in /  1032.1hPa Calm     85% 0.00in /  0mm
06:49 28.5 °F /  -1.9 °C 24.6 °F /  -4.1 °C 30.48in /  1032.1hPa Calm     85% 0.00in /  0mm
06:54 28.5 °F /  -1.9 °C 24.6 °F /  -4.1 °C 30.49in /  1032.4hPa Calm     85% 0.00in /  0mm
06:59 28.5 °F /  -1.9 °C 24.6 °F /  -4.1 °C 30.49in /  1032.4hPa Calm     85% 0.00in /  0mm
07:04 28.5 °F /  -1.9 °C 24.6 °F /  -4.1 °C 30.48in /  1032.1hPa Calm     85% 0.00in /  0mm
07:09 28.5 °F /  -1.9 °C 24.8 °F /  -4 °C 30.48in /  1032.1hPa Calm     86% 0.00in /  0mm
07:14 28.6 °F /  -1.9 °C 24.9 °F /  -3.9 °C 30.48in /  1032.1hPa Calm     86% 0.00in /  0mm
07:19 28.7 °F /  -1.8 °C 25.0 °F /  -3.9 °C 30.48in /  1032.1hPa Calm     86% 0.00in /  0mm
07:24 28.9 °F /  -1.7 °C 25.5 °F /  -3.6 °C 30.49in /  1032.4hPa Calm     87% 0.00in /  0mm
07:29 29.2 °F /  -1.6 °C 25.8 °F /  -3.4 °C 30.49in /  1032.4hPa Calm     87% 0.00in /  0mm
07:34 29.4 °F /  -1.4 °C 26.0 °F /  -3.3 °C 30.49in /  1032.4hPa Calm     87% 0.00in /  0mm
07:39 29.7 °F /  -1.3 °C 26.6 °F /  -3 °C 30.50in /  1032.7hPa Calm     88% 0.00in /  0mm
07:44 30.2 °F /  -1 °C 27.1 °F /  -2.7 °C 30.50in /  1032.7hPa Calm     88% 0.00in /  0mm
07:49 30.6 °F /  -0.8 °C 27.5 °F /  -2.5 °C 30.51in /  1033.1hPa Calm     88% 0.00in /  0mm
07:54 31.2 °F /  -0.4 °C 28.3 °F /  -2.1 °C 30.51in /  1033.1hPa Calm     89% 0.00in /  0mm
07:59 33.0 °F /  0.6 °C 30.4 °F /  -0.9 °C 30.51in /  1033.1hPa Calm     90% 0.00in /  0mm
08:04 35.4 °F /  1.9 °C 31.6 °F /  -0.2 °C 30.50in /  1032.7hPa Calm     86% 0.00in /  0mm
08:09 36.6 °F /  2.6 °C 31.9 °F /  -0.1 °C 30.51in /  1033.1hPa Calm     83% 0.00in /  0mm
08:14 37.2 °F /  2.9 °C 31.3 °F /  -0.4 °C 30.51in /  1033.1hPa Calm     79% 0.00in /  0mm
08:19 37.8 °F /  3.2 °C 31.6 °F /  -0.2 °C 30.51in /  1033.1hPa Calm     78% 0.00in /  0mm
08:24 38.1 °F /  3.4 °C 31.8 °F /  -0.1 °C 30.52in /  1033.4hPa Calm     78% 0.00in /  0mm
08:29 38.5 °F /  3.6 °C 31.9 °F /  -0.1 °C 30.52in /  1033.4hPa Calm     77% 0.00in /  0mm
08:34 38.9 °F /  3.8 °C 31.6 °F /  -0.2 °C 30.52in /  1033.4hPa Calm     75% 0.00in /  0mm
08:39 39.5 °F /  4.2 °C 31.9 °F /  -0.1 °C 30.52in /  1033.4hPa Calm     74% 0.00in /  0mm
08:44 39.5 °F /  4.2 °C 32.2 °F /  0.1 °C 30.52in /  1033.4hPa Calm     75% 0.00in /  0mm
08:49 40.2 °F /  4.6 °C 32.2 °F /  0.1 °C 30.52in /  1033.4hPa NW 1.0mph /  1.6km/h 2.0mph /  3.2km/h 73% 0.00in /  0mm
08:54 40.8 °F /  4.9 °C 32.8 °F /  0.4 °C 30.52in /  1033.4hPa Calm   2.0mph /  3.2km/h 73% 0.00in /  0mm
08:59 41.1 °F /  5.1 °C 32.1 °F /  0.1 °C 30.52in /  1033.4hPa Calm     70% 0.00in /  0mm
09:04 42.1 °F /  5.6 °C 33.4 °F /  0.8 °C 30.52in /  1033.4hPa Calm   4.0mph /  6.4km/h 71% 0.00in /  0mm
09:09 42.7 °F /  5.9 °C 33.2 °F /  0.7 °C 30.52in /  1033.4hPa WNW 1.0mph /  1.6km/h 4.0mph /  6.4km/h 69% 0.00in /  0mm
09:14 43.1 °F /  6.2 °C 32.5 °F /  0.3 °C 30.52in /  1033.4hPa NW 1.0mph /  1.6km/h 3.0mph /  4.8km/h 66% 0.00in /  0mm
09:19 42.4 °F /  5.8 °C 32.9 °F /  0.5 °C 30.52in /  1033.4hPa Calm   2.0mph /  3.2km/h 69% 0.00in /  0mm
09:24 43.0 °F /  6.1 °C 33.9 °F /  1.1 °C 30.52in /  1033.4hPa NW 1.0mph /  1.6km/h 4.0mph /  6.4km/h 70% 0.00in /  0mm
09:29 43.6 °F /  6.4 °C 33.7 °F /  0.9 °C 30.52in /  1033.4hPa WSW 2.0mph /  3.2km/h 3.0mph /  4.8km/h 68% 0.00in /  0mm
09:34 42.8 °F /  6 °C 32.2 °F /  0.1 °C 30.53in /  1033.7hPa WSW 2.0mph /  3.2km/h 3.0mph /  4.8km/h 66% 0.00in /  0mm
09:39 43.5 °F /  6.4 °C 32.9 °F /  0.5 °C 30.53in /  1033.7hPa West 5.0mph /  8km/h 5.0mph /  8km/h 66% 0.00in /  0mm
09:44 43.5 °F /  6.4 °C 32.1 °F /  0.1 °C 30.53in /  1033.7hPa WSW 1.0mph /  1.6km/h 5.0mph /  8km/h 64% 0.00in /  0mm
09:49 43.9 °F /  6.6 °C 33.6 °F /  0.9 °C 30.54in /  1034.1hPa West 3.0mph /  4.8km/h 4.0mph /  6.4km/h 67% 0.00in /  0mm
09:54 44.2 °F /  6.8 °C 32.8 °F /  0.4 °C 30.55in /  1034.4hPa SW 3.0mph /  4.8km/h 7.0mph /  11.3km/h 64% 0.00in /  0mm
09:59 44.6 °F /  7 °C 32.4 °F /  0.2 °C 30.55in /  1034.4hPa WSW 3.0mph /  4.8km/h 7.0mph /  11.3km/h 62% 0.00in /  0mm
10:04 45.2 °F /  7.3 °C 32.5 °F /  0.3 °C 30.55in /  1034.4hPa WSW 3.0mph /  4.8km/h 5.0mph /  8km/h 61% 0.00in /  0mm
10:09 45.4 °F /  7.4 °C 33.5 °F /  0.8 °C 30.55in /  1034.4hPa WSW 3.0mph /  4.8km/h 5.0mph /  8km/h 63% 0.00in /  0mm
10:14 46.0 °F /  7.8 °C 34.1 °F /  1.2 °C 30.54in /  1034.1hPa SW 4.0mph /  6.4km/h 7.0mph /  11.3km/h 63% 0.00in /  0mm
10:19 45.8 °F /  7.7 °C 33.5 °F /  0.8 °C 30.54in /  1034.1hPa SSW 5.0mph /  8km/h 6.0mph /  9.7km/h 62% 0.00in /  0mm
10:24 45.9 °F /  7.7 °C 33.2 °F /  0.7 °C 30.54in /  1034.1hPa South 2.0mph /  3.2km/h 6.0mph /  9.7km/h 61% 0.00in /  0mm
10:29 46.0 °F /  7.8 °C 33.3 °F /  0.7 °C 30.54in /  1034.1hPa SSW 4.0mph /  6.4km/h 6.0mph /  9.7km/h 61% 0.00in /  0mm
10:34 46.3 °F /  7.9 °C 33.2 °F /  0.7 °C 30.53in /  1033.7hPa SW 4.0mph /  6.4km/h 7.0mph /  11.3km/h 60% 0.00in /  0mm
10:39 46.0 °F /  7.8 °C 32.0 °F /  0 °C 30.54in /  1034.1hPa SW 4.0mph /  6.4km/h 8.0mph /  12.9km/h 58% 0.00in /  0mm
10:44 45.5 °F /  7.5 °C 32.4 °F /  0.2 °C 30.54in /  1034.1hPa SW 4.0mph /  6.4km/h 8.0mph /  12.9km/h 60% 0.00in /  0mm
10:49 45.2 °F /  7.3 °C 32.5 °F /  0.3 °C 30.54in /  1034.1hPa SW 1.0mph /  1.6km/h 7.0mph /  11.3km/h 61% 0.00in /  0mm
10:54 45.4 °F /  7.4 °C 32.7 °F /  0.4 °C 30.54in /  1034.1hPa SSW 7.0mph /  11.3km/h 8.0mph /  12.9km/h 61% 0.00in /  0mm
10:59 45.4 °F /  7.4 °C 32.7 °F /  0.4 °C 30.54in /  1034.1hPa WSW 4.0mph /  6.4km/h 8.0mph /  12.9km/h 61% 0.00in /  0mm
11:04 45.0 °F /  7.2 °C 31.9 °F /  -0.1 °C 30.54in /  1034.1hPa WSW 3.0mph /  4.8km/h 8.0mph /  12.9km/h 60% 0.00in /  0mm
11:09 45.2 °F /  7.3 °C 31.7 °F /  -0.2 °C 30.54in /  1034.1hPa West 3.0mph /  4.8km/h 9.0mph /  14.5km/h 59% 0.00in /  0mm
11:14 45.4 °F /  7.4 °C 31.9 °F /  -0.1 °C 30.54in /  1034.1hPa West 2.0mph /  3.2km/h 9.0mph /  14.5km/h 59% 0.00in /  0mm
11:19 45.1 °F /  7.3 °C 32.4 °F /  0.2 °C 30.53in /  1033.7hPa WSW 5.0mph /  8km/h 7.0mph /  11.3km/h 61% 0.00in /  0mm
11:24 45.6 °F /  7.6 °C 33.3 °F /  0.7 °C 30.53in /  1033.7hPa SW 3.0mph /  4.8km/h 8.0mph /  12.9km/h 62% 0.00in /  0mm
11:29 45.8 °F /  7.7 °C 31.9 °F /  -0.1 °C 30.53in /  1033.7hPa WSW 4.0mph /  6.4km/h 8.0mph /  12.9km/h 58% 0.00in /  0mm
11:34 46.6 °F /  8.1 °C 32.6 °F /  0.3 °C 30.53in /  1033.7hPa West 3.0mph /  4.8km/h 7.0mph /  11.3km/h 58% 0.00in /  0mm
11:39 46.9 °F /  8.3 °C 31.6 °F /  -0.2 °C 30.53in /  1033.7hPa SW 2.0mph /  3.2km/h 7.0mph /  11.3km/h 55% 0.00in /  0mm
11:44 47.1 °F /  8.4 °C 33.5 °F /  0.8 °C 30.53in /  1033.7hPa SW 3.0mph /  4.8km/h 7.0mph /  11.3km/h 59% 0.00in /  0mm
11:49 46.9 °F /  8.3 °C 32.0 °F /  0 °C 30.52in /  1033.4hPa SW 2.0mph /  3.2km/h 5.0mph /  8km/h 56% 0.00in /  0mm
11:54 47.2 °F /  8.4 °C 31.8 °F /  -0.1 °C 30.52in /  1033.4hPa South 1.0mph /  1.6km/h 5.0mph /  8km/h 55% 0.00in /  0mm
11:59 48.2 °F /  9 °C 32.8 °F /  0.4 °C 30.52in /  1033.4hPa NW 2.0mph /  3.2km/h 4.0mph /  6.4km/h 55% 0.00in /  0mm
12:04 48.6 °F /  9.2 °C 33.1 °F /  0.6 °C 30.52in /  1033.4hPa NW 3.0mph /  4.8km/h 5.0mph /  8km/h 55% 0.00in /  0mm
12:09 48.5 °F /  9.2 °C 32.1 °F /  0.1 °C 30.52in /  1033.4hPa WSW 1.0mph /  1.6km/h 4.0mph /  6.4km/h 53% 0.00in /  0mm
12:14 49.4 °F /  9.7 °C 33.9 °F /  1.1 °C 30.52in /  1033.4hPa NW 3.0mph /  4.8km/h 5.0mph /  8km/h 55% 0.00in /  0mm
12:19 49.3 °F /  9.6 °C 32.9 °F /  0.5 °C 30.52in /  1033.4hPa West 2.0mph /  3.2km/h 4.0mph /  6.4km/h 53% 0.00in /  0mm
12:24 49.3 °F /  9.6 °C 33.8 °F /  1 °C 30.52in /  1033.4hPa SSW 1.0mph /  1.6km/h 4.0mph /  6.4km/h 55% 0.00in /  0mm
12:29 49.5 °F /  9.7 °C 33.1 °F /  0.6 °C 30.52in /  1033.4hPa WSW 2.0mph /  3.2km/h 4.0mph /  6.4km/h 53% 0.00in /  0mm
12:34 50.1 °F /  10.1 °C 32.7 °F /  0.4 °C 30.52in /  1033.4hPa WNW 3.0mph /  4.8km/h 7.0mph /  11.3km/h 51% 0.00in /  0mm
12:39 49.0 °F /  9.4 °C 33.1 °F /  0.6 °C 30.52in /  1033.4hPa WNW 2.0mph /  3.2km/h 7.0mph /  11.3km/h 54% 0.00in /  0mm
12:49 49.3 °F /  9.6 °C 30.4 °F /  -0.9 °C 30.52in /  1033.4hPa West 2.0mph /  3.2km/h 6.0mph /  9.7km/h 48% 0.00in /  0mm
12:54 49.4 °F /  9.7 °C 32.0 °F /  0 °C 30.51in /  1033.1hPa NW 2.0mph /  3.2km/h 2.0mph /  3.2km/h 51% 0.00in /  0mm
12:59 50.5 °F /  10.3 °C 32.5 °F /  0.3 °C 30.51in /  1033.1hPa NW 2.0mph /  3.2km/h 4.0mph /  6.4km/h 50% 0.00in /  0mm
13:04 50.4 °F /  10.2 °C 31.4 °F /  -0.3 °C 30.51in /  1033.1hPa NW 2.0mph /  3.2km/h 7.0mph /  11.3km/h 48% 0.00in /  0mm
13:09 50.4 °F /  10.2 °C 32.4 °F /  0.2 °C 30.51in /  1033.1hPa WNW 1.0mph /  1.6km/h 5.0mph /  8km/h 50% 0.00in /  0mm
13:14 49.9 °F /  9.9 °C 32.0 °F /  0 °C 30.51in /  1033.1hPa SW 3.0mph /  4.8km/h 4.0mph /  6.4km/h 50% 0.00in /  0mm
13:19 50.1 °F /  10.1 °C 32.7 °F /  0.4 °C 30.50in /  1032.7hPa NW 2.0mph /  3.2km/h 6.0mph /  9.7km/h 51% 0.00in /  0mm
13:24 49.6 °F /  9.8 °C 30.7 °F /  -0.7 °C 30.50in /  1032.7hPa NNE 2.0mph /  3.2km/h 5.0mph /  8km/h 48% 0.00in /  0mm
13:29 49.5 °F /  9.7 °C 31.1 °F /  -0.5 °C 30.50in /  1032.7hPa North 2.0mph /  3.2km/h 5.0mph /  8km/h 49% 0.00in /  0mm
13:34 50.2 °F /  10.1 °C 33.2 °F /  0.7 °C 30.50in /  1032.7hPa NW 2.0mph /  3.2km/h 6.0mph /  9.7km/h 52% 0.00in /  0mm
13:39 49.7 °F /  9.8 °C 31.3 °F /  -0.4 °C 30.50in /  1032.7hPa WNW 2.0mph /  3.2km/h 6.0mph /  9.7km/h 49% 0.00in /  0mm
13:44 49.9 °F /  9.9 °C 31.0 °F /  -0.6 °C 30.50in /  1032.7hPa NNW 3.0mph /  4.8km/h 7.0mph /  11.3km/h 48% 0.00in /  0mm
13:49 49.6 °F /  9.8 °C 31.7 °F /  -0.2 °C 30.49in /  1032.4hPa NW 1.0mph /  1.6km/h 4.0mph /  6.4km/h 50% 0.00in /  0mm
13:54 50.3 °F /  10.2 °C 33.8 °F /  1 °C 30.49in /  1032.4hPa NW 2.0mph /  3.2km/h 5.0mph /  8km/h 53% 0.00in /  0mm
13:59 49.9 °F /  9.9 °C 31.0 °F /  -0.6 °C 30.49in /  1032.4hPa WNW 2.0mph /  3.2km/h 5.0mph /  8km/h 48% 0.00in /  0mm
14:04 50.4 °F /  10.2 °C 32.9 °F /  0.5 °C 30.49in /  1032.4hPa West 2.0mph /  3.2km/h 5.0mph /  8km/h 51% 0.00in /  0mm
14:09 50.4 °F /  10.2 °C 31.9 °F /  -0.1 °C 30.49in /  1032.4hPa WNW 1.0mph /  1.6km/h 5.0mph /  8km/h 49% 0.00in /  0mm
14:14 49.5 °F /  9.7 °C 30.6 °F /  -0.8 °C 30.49in /  1032.4hPa SSW 5.0mph /  8km/h 5.0mph /  8km/h 48% 0.00in /  0mm
14:19 50.7 °F /  10.4 °C 32.7 °F /  0.4 °C 30.49in /  1032.4hPa NW 2.0mph /  3.2km/h 6.0mph /  9.7km/h 50% 0.00in /  0mm
14:24 52.0 °F /  11.1 °C 32.4 °F /  0.2 °C 30.49in /  1032.4hPa WNW 3.0mph /  4.8km/h 6.0mph /  9.7km/h 47% 0.00in /  0mm
14:29 51.2 °F /  10.7 °C 31.1 °F /  -0.5 °C 30.49in /  1032.4hPa ENE 1.0mph /  1.6km/h 5.0mph /  8km/h 46% 0.00in /  0mm
14:34 50.6 °F /  10.3 °C 30.0 °F /  -1.1 °C 30.49in /  1032.4hPa East 1.0mph /  1.6km/h 5.0mph /  8km/h 45% 0.00in /  0mm
14:39 50.5 °F /  10.3 °C 31.0 °F /  -0.6 °C 30.48in /  1032.1hPa West 2.0mph /  3.2km/h 5.0mph /  8km/h 47% 0.00in /  0mm
14:44 49.9 °F /  9.9 °C 33.0 °F /  0.6 °C 30.48in /  1032.1hPa South 2.0mph /  3.2km/h 8.0mph /  12.9km/h 52% 0.00in /  0mm
14:49 49.4 °F /  9.7 °C 32.0 °F /  0 °C 30.48in /  1032.1hPa SW 2.0mph /  3.2km/h 4.0mph /  6.4km/h 51% 0.00in /  0mm
14:54 50.4 °F /  10.2 °C 34.4 °F /  1.3 °C 30.47in /  1031.7hPa SW 2.0mph /  3.2km/h 6.0mph /  9.7km/h 54% 0.00in /  0mm
14:59 50.5 °F /  10.3 °C 33.0 °F /  0.6 °C 30.47in /  1031.7hPa SW 3.0mph /  4.8km/h 8.0mph /  12.9km/h 51% 0.00in /  0mm
15:04 50.3 °F /  10.2 °C 33.3 °F /  0.7 °C 30.47in /  1031.7hPa SW 3.0mph /  4.8km/h 8.0mph /  12.9km/h 52% 0.00in /  0mm
15:09 49.9 °F /  9.9 °C 32.5 °F /  0.3 °C 30.47in /  1031.7hPa SW 3.0mph /  4.8km/h 7.0mph /  11.3km/h 51% 0.00in /  0mm
15:14 49.3 °F /  9.6 °C 31.4 °F /  -0.3 °C 30.47in /  1031.7hPa WSW 2.0mph /  3.2km/h 6.0mph /  9.7km/h 50% 0.00in /  0mm
15:19 49.8 °F /  9.9 °C 31.9 °F /  -0.1 °C 30.47in /  1031.7hPa SW 2.0mph /  3.2km/h 5.0mph /  8km/h 50% 0.00in /  0mm
15:24 50.5 °F /  10.3 °C 33.0 °F /  0.6 °C 30.47in /  1031.7hPa South 2.0mph /  3.2km/h 6.0mph /  9.7km/h 51% 0.00in /  0mm
15:29 50.1 °F /  10.1 °C 32.2 °F /  0.1 °C 30.46in /  1031.4hPa SSW 4.0mph /  6.4km/h 7.0mph /  11.3km/h 50% 0.00in /  0mm
15:39 50.9 °F /  10.5 °C 33.4 °F /  0.8 °C 30.46in /  1031.4hPa SSW 2.0mph /  3.2km/h 6.0mph /  9.7km/h 51% 0.00in /  0mm
15:49 50.5 °F /  10.3 °C 32.0 °F /  0 °C 30.45in /  1031hPa Calm   5.0mph /  8km/h 49% 0.00in /  0mm
15:54 50.6 °F /  10.3 °C 32.1 °F /  0.1 °C 30.45in /  1031hPa SSW 2.0mph /  3.2km/h 5.0mph /  8km/h 49% 0.00in /  0mm
15:59 52.0 °F /  11.1 °C 33.9 °F /  1.1 °C 30.45in /  1031hPa SSW 3.0mph /  4.8km/h 7.0mph /  11.3km/h 50% 0.00in /  0mm
16:04 52.2 °F /  11.2 °C 33.1 °F /  0.6 °C 30.44in /  1030.7hPa SW 3.0mph /  4.8km/h 7.0mph /  11.3km/h 48% 0.00in /  0mm
16:09 52.3 °F /  11.3 °C 33.2 °F /  0.7 °C 30.44in /  1030.7hPa SSW 3.0mph /  4.8km/h 6.0mph /  9.7km/h 48% 0.00in /  0mm
16:14 52.8 °F /  11.6 °C 34.7 °F /  1.5 °C 30.45in /  1031hPa SSW 3.0mph /  4.8km/h 7.0mph /  11.3km/h 50% 0.00in /  0mm
16:19 53.8 °F /  12.1 °C 33.5 °F /  0.8 °C 30.44in /  1030.7hPa SSW 3.0mph /  4.8km/h 8.0mph /  12.9km/h 46% 0.00in /  0mm
16:29 52.8 °F /  11.6 °C 33.6 °F /  0.9 °C 30.44in /  1030.7hPa South 2.0mph /  3.2km/h 7.0mph /  11.3km/h 48% 0.00in /  0mm
16:34 52.5 °F /  11.4 °C 32.3 °F /  0.2 °C 30.44in /  1030.7hPa South 1.0mph /  1.6km/h 6.0mph /  9.7km/h 46% 0.00in /  0mm
16:39 52.8 °F /  11.6 °C 32.6 °F /  0.3 °C 30.44in /  1030.7hPa South 5.0mph /  8km/h 6.0mph /  9.7km/h 46% 0.00in /  0mm
16:44 52.1 °F /  11.2 °C 32.5 °F /  0.3 °C 30.44in /  1030.7hPa South 3.0mph /  4.8km/h 6.0mph /  9.7km/h 47% 0.00in /  0mm
16:49 52.7 °F /  11.5 °C 31.9 °F /  -0.1 °C 30.43in /  1030.4hPa South 2.0mph /  3.2km/h 6.0mph /  9.7km/h 45% 0.00in /  0mm
16:54 52.9 °F /  11.6 °C 32.7 °F /  0.4 °C 30.43in /  1030.4hPa South 3.0mph /  4.8km/h 7.0mph /  11.3km/h 46% 0.00in /  0mm
16:59 53.4 °F /  11.9 °C 33.1 °F /  0.6 °C 30.43in /  1030.4hPa South 3.0mph /  4.8km/h 7.0mph /  11.3km/h 46% 0.00in /  0mm
17:04 53.3 °F /  11.8 °C 32.5 °F /  0.3 °C 30.43in /  1030.4hPa SSW 2.0mph /  3.2km/h 7.0mph /  11.3km/h 45% 0.00in /  0mm
17:09 52.8 °F /  11.6 °C 32.6 °F /  0.3 °C 30.43in /  1030.4hPa SSW 2.0mph /  3.2km/h 6.0mph /  9.7km/h 46% 0.00in /  0mm
17:14 52.7 °F /  11.5 °C 32.5 °F /  0.3 °C 30.43in /  1030.4hPa SW 2.0mph /  3.2km/h 5.0mph /  8km/h 46% 0.00in /  0mm
17:19 52.5 °F /  11.4 °C 32.3 °F /  0.2 °C 30.43in /  1030.4hPa West 3.0mph /  4.8km/h 5.0mph /  8km/h 46% 0.00in /  0mm
17:24 52.8 °F /  11.6 °C 32.6 °F /  0.3 °C 30.42in /  1030hPa SW 1.0mph /  1.6km/h 5.0mph /  8km/h 46% 0.00in /  0mm
17:29 53.2 °F /  11.8 °C 32.4 °F /  0.2 °C 30.42in /  1030hPa SSW 1.0mph /  1.6km/h 6.0mph /  9.7km/h 45% 0.00in /  0mm
17:34 52.9 °F /  11.6 °C 32.1 °F /  0.1 °C 30.42in /  1030hPa South 2.0mph /  3.2km/h 6.0mph /  9.7km/h 45% 0.00in /  0mm
17:39 53.1 °F /  11.7 °C 32.3 °F /  0.2 °C 30.42in /  1030hPa SSW 3.0mph /  4.8km/h 5.0mph /  8km/h 45% 0.00in /  0mm
17:44 52.8 °F /  11.6 °C 31.5 °F /  -0.3 °C 30.42in /  1030hPa SSW 3.0mph /  4.8km/h 5.0mph /  8km/h 44% 0.00in /  0mm
17:49 52.5 °F /  11.4 °C 31.8 °F /  -0.1 °C 30.42in /  1030hPa Calm   3.0mph /  4.8km/h 45% 0.00in /  0mm
17:54 52.4 °F /  11.3 °C 30.5 °F /  -0.8 °C 30.41in /  1029.7hPa Calm   3.0mph /  4.8km/h 43% 0.00in /  0mm
17:59 52.5 °F /  11.4 °C 30.0 °F /  -1.1 °C 30.41in /  1029.7hPa NW 1.0mph /  1.6km/h 3.0mph /  4.8km/h 42% 0.00in /  0mm
18:04 52.3 °F /  11.3 °C 30.4 °F /  -0.9 °C 30.41in /  1029.7hPa Calm   3.0mph /  4.8km/h 43% 0.00in /  0mm
18:09 51.9 °F /  11.1 °C 29.5 °F /  -1.4 °C 30.41in /  1029.7hPa SW 1.0mph /  1.6km/h 3.0mph /  4.8km/h 42% 0.00in /  0mm
18:14 52.3 °F /  11.3 °C 32.1 °F /  0.1 °C 30.41in /  1029.7hPa NE 3.0mph /  4.8km/h 4.0mph /  6.4km/h 46% 0.00in /  0mm
18:19 52.1 °F /  11.2 °C 30.8 °F /  -0.7 °C 30.41in /  1029.7hPa Calm   4.0mph /  6.4km/h 44% 0.00in /  0mm
18:24 51.9 °F /  11.1 °C 30.6 °F /  -0.8 °C 30.41in /  1029.7hPa NE 1.0mph /  1.6km/h 4.0mph /  6.4km/h 44% 0.00in /  0mm
18:29 51.9 °F /  11.1 °C 30.1 °F /  -1.1 °C 30.41in /  1029.7hPa Calm   2.0mph /  3.2km/h 43% 0.00in /  0mm
18:34 52.2 °F /  11.2 °C 29.8 °F /  -1.2 °C 30.40in /  1029.3hPa Calm   2.0mph /  3.2km/h 42% 0.00in /  0mm
18:39 52.1 °F /  11.2 °C 29.7 °F /  -1.3 °C 30.40in /  1029.3hPa SE 1.0mph /  1.6km/h 3.0mph /  4.8km/h 42% 0.00in /  0mm
18:44 51.9 °F /  11.1 °C 30.6 °F /  -0.8 °C 30.40in /  1029.3hPa SSW 3.0mph /  4.8km/h 3.0mph /  4.8km/h 44% 0.00in /  0mm
18:49 51.9 °F /  11.1 °C 29.5 °F /  -1.4 °C 30.40in /  1029.3hPa SSW 1.0mph /  1.6km/h 4.0mph /  6.4km/h 42% 0.00in /  0mm
18:54 52.1 °F /  11.2 °C 30.3 °F /  -0.9 °C 30.40in /  1029.3hPa SSW 2.0mph /  3.2km/h 4.0mph /  6.4km/h 43% 0.00in /  0mm
18:59 52.0 °F /  11.1 °C 29.6 °F /  -1.3 °C 30.40in /  1029.3hPa South 1.0mph /  1.6km/h 4.0mph /  6.4km/h 42% 0.00in /  0mm
19:04 51.7 °F /  10.9 °C 28.7 °F /  -1.8 °C 30.40in /  1029.3hPa Calm   3.0mph /  4.8km/h 41% 0.00in /  0mm
19:09 51.6 °F /  10.9 °C 29.2 °F /  -1.6 °C 30.40in /  1029.3hPa Calm     42% 0.00in /  0mm
19:14 51.6 °F /  10.9 °C 28.6 °F /  -1.9 °C 30.41in /  1029.7hPa Calm     41% 0.00in /  0mm
19:19 51.3 °F /  10.7 °C 29.0 °F /  -1.7 °C 30.41in /  1029.7hPa Calm     42% 0.00in /  0mm
19:24 50.7 °F /  10.4 °C 29.0 °F /  -1.7 °C 30.41in /  1029.7hPa Calm     43% 0.00in /  0mm
19:34 50.9 °F /  10.5 °C 28.6 °F /  -1.9 °C 30.41in /  1029.7hPa North 2.0mph /  3.2km/h 3.0mph /  4.8km/h 42% 0.00in /  0mm
19:39 50.9 °F /  10.5 °C 28.6 °F /  -1.9 °C 30.41in /  1029.7hPa Calm   2.0mph /  3.2km/h 42% 0.00in /  0mm
19:44 50.7 °F /  10.4 °C 28.4 °F /  -2 °C 30.41in /  1029.7hPa Calm   2.0mph /  3.2km/h 42% 0.00in /  0mm
19:49 50.5 °F /  10.3 °C 28.2 °F /  -2.1 °C 30.41in /  1029.7hPa NE 3.0mph /  4.8km/h 4.0mph /  6.4km/h 42% 0.00in /  0mm
19:54 50.3 °F /  10.2 °C 28.1 °F /  -2.2 °C 30.40in /  1029.3hPa NE 1.0mph /  1.6km/h 4.0mph /  6.4km/h 42% 0.00in /  0mm
19:59 50.3 °F /  10.2 °C 27.5 °F /  -2.5 °C 30.41in /  1029.7hPa NE 2.0mph /  3.2km/h 4.0mph /  6.4km/h 41% 0.00in /  0mm
20:04 50.2 °F /  10.1 °C 28.0 °F /  -2.2 °C 30.41in /  1029.7hPa NE 2.0mph /  3.2km/h 3.0mph /  4.8km/h 42% 0.00in /  0mm
20:09 49.9 °F /  9.9 °C 27.1 °F /  -2.7 °C 30.40in /  1029.3hPa NE 2.0mph /  3.2km/h 3.0mph /  4.8km/h 41% 0.00in /  0mm
20:14 50.0 °F /  10 °C 27.2 °F /  -2.7 °C 30.40in /  1029.3hPa NE 2.0mph /  3.2km/h 3.0mph /  4.8km/h 41% 0.00in /  0mm
20:19 49.6 °F /  9.8 °C 26.8 °F /  -2.9 °C 30.40in /  1029.3hPa East 3.0mph /  4.8km/h 3.0mph /  4.8km/h 41% 0.00in /  0mm
20:24 49.6 °F /  9.8 °C 26.8 °F /  -2.9 °C 30.40in /  1029.3hPa East 1.0mph /  1.6km/h 3.0mph /  4.8km/h 41% 0.00in /  0mm
20:29 49.1 °F /  9.5 °C 27.0 °F /  -2.8 °C 30.40in /  1029.3hPa Calm   2.0mph /  3.2km/h 42% 0.00in /  0mm
20:34 48.7 °F /  9.3 °C 27.2 °F /  -2.7 °C 30.40in /  1029.3hPa Calm   2.0mph /  3.2km/h 43% 0.00in /  0mm
20:39 48.7 °F /  9.3 °C 27.2 °F /  -2.7 °C 30.40in /  1029.3hPa Calm   2.0mph /  3.2km/h 43% 0.00in /  0mm
20:44 48.6 °F /  9.2 °C 27.6 °F /  -2.4 °C 30.39in /  1029hPa Calm   3.0mph /  4.8km/h 44% 0.00in /  0mm
20:49 48.4 °F /  9.1 °C 26.9 °F /  -2.8 °C 30.39in /  1029hPa East 2.0mph /  3.2km/h 3.0mph /  4.8km/h 43% 0.00in /  0mm
20:54 48.3 °F /  9.1 °C 26.8 °F /  -2.9 °C 30.39in /  1029hPa East 1.0mph /  1.6km/h 5.0mph /  8km/h 43% 0.00in /  0mm
20:59 48.3 °F /  9.1 °C 26.2 °F /  -3.2 °C 30.40in /  1029.3hPa East 1.0mph /  1.6km/h 5.0mph /  8km/h 42% 0.00in /  0mm
21:04 48.0 °F /  8.9 °C 26.0 °F /  -3.3 °C 30.40in /  1029.3hPa East 1.0mph /  1.6km/h 3.0mph /  4.8km/h 42% 0.00in /  0mm
21:09 47.8 °F /  8.8 °C 25.8 °F /  -3.4 °C 30.40in /  1029.3hPa Calm   2.0mph /  3.2km/h 42% 0.00in /  0mm
21:14 47.7 °F /  8.7 °C 25.7 °F /  -3.5 °C 30.40in /  1029.3hPa Calm     42% 0.00in /  0mm
21:19 47.3 °F /  8.5 °C 25.9 °F /  -3.4 °C 30.40in /  1029.3hPa Calm     43% 0.00in /  0mm
21:24 47.0 °F /  8.3 °C 26.2 °F /  -3.2 °C 30.40in /  1029.3hPa Calm     44% 0.00in /  0mm
21:29 46.9 °F /  8.3 °C 25.5 °F /  -3.6 °C 30.40in /  1029.3hPa Calm     43% 0.00in /  0mm
21:34 46.7 °F /  8.2 °C 25.9 °F /  -3.4 °C 30.40in /  1029.3hPa Calm     44% 0.00in /  0mm
21:39 46.4 °F /  8 °C 25.6 °F /  -3.6 °C 30.40in /  1029.3hPa Calm     44% 0.00in /  0mm
21:44 45.7 °F /  7.6 °C 26.1 °F /  -3.3 °C 30.40in /  1029.3hPa Calm     46% 0.00in /  0mm
21:49 45.1 °F /  7.3 °C 26.6 °F /  -3 °C 30.41in /  1029.7hPa Calm     48% 0.00in /  0mm
21:54 44.6 °F /  7 °C 26.6 °F /  -3 °C 30.41in /  1029.7hPa Calm     49% 0.00in /  0mm
21:59 44.1 °F /  6.7 °C 26.6 °F /  -3 °C 30.41in /  1029.7hPa Calm     50% 0.00in /  0mm
22:04 43.8 °F /  6.6 °C 27.3 °F /  -2.6 °C 30.41in /  1029.7hPa Calm     52% 0.00in /  0mm
22:09 43.5 °F /  6.4 °C 27.5 °F /  -2.5 °C 30.41in /  1029.7hPa Calm     53% 0.00in /  0mm
22:14 43.2 °F /  6.2 °C 27.7 °F /  -2.4 °C 30.41in /  1029.7hPa Calm     54% 0.00in /  0mm
22:19 42.8 °F /  6 °C 27.7 °F /  -2.4 °C 30.41in /  1029.7hPa Calm     55% 0.00in /  0mm
22:24 42.5 °F /  5.8 °C 27.9 °F /  -2.3 °C 30.41in /  1029.7hPa Calm     56% 0.00in /  0mm
22:29 43.1 °F /  6.2 °C 27.1 °F /  -2.7 °C 30.40in /  1029.3hPa Calm     53% 0.00in /  0mm
22:34 43.1 °F /  6.2 °C 27.1 °F /  -2.7 °C 30.40in /  1029.3hPa Calm     53% 0.00in /  0mm
22:39 42.8 °F /  6 °C 27.7 °F /  -2.4 °C 30.41in /  1029.7hPa Calm     55% 0.00in /  0mm
22:44 42.3 °F /  5.7 °C 27.7 °F /  -2.4 °C 30.41in /  1029.7hPa Calm     56% 0.00in /  0mm
22:49 41.8 °F /  5.4 °C 28.1 °F /  -2.2 °C 30.41in /  1029.7hPa Calm     58% 0.00in /  0mm
22:54 41.8 °F /  5.4 °C 28.1 °F /  -2.2 °C 30.41in /  1029.7hPa Calm     58% 0.00in /  0mm
22:59 41.7 °F /  5.4 °C 28.4 °F /  -2 °C 30.41in /  1029.7hPa Calm     59% 0.00in /  0mm
23:04 41.3 °F /  5.2 °C 28.4 °F /  -2 °C 30.41in /  1029.7hPa Calm     60% 0.00in /  0mm
23:09 41.0 °F /  5 °C 28.6 °F /  -1.9 °C 30.41in /  1029.7hPa Calm     61% 0.00in /  0mm
23:14 40.9 °F /  4.9 °C 28.9 °F /  -1.7 °C 30.41in /  1029.7hPa Calm     62% 0.00in /  0mm
23:19 40.9 °F /  4.9 °C 28.9 °F /  -1.7 °C 30.41in /  1029.7hPa Calm     62% 0.00in /  0mm
23:24 40.7 °F /  4.8 °C 28.7 °F /  -1.8 °C 30.41in /  1029.7hPa Calm     62% 0.00in /  0mm
23:29 40.8 °F /  4.9 °C 28.4 °F /  -2 °C 30.41in /  1029.7hPa Calm     61% 0.00in /  0mm
23:39 40.9 °F /  4.9 °C 29.3 °F /  -1.5 °C 30.42in /  1030hPa Calm     63% 0.00in /  0mm
23:44 40.7 °F /  4.8 °C 29.1 °F /  -1.6 °C 30.42in /  1030hPa Calm     63% 0.00in /  0mm
23:49 40.4 °F /  4.7 °C 29.2 °F /  -1.6 °C 30.42in /  1030hPa Calm     64% 0.00in /  0mm
23:54 40.3 °F /  4.6 °C 29.1 °F /  -1.6 °C 30.42in /  1030hPa Calm     64% 0.00in /  0mm
23:59 40.4 °F /  4.7 °C 29.6 °F /  -1.3 °C 30.42in /  1030hPa Calm     65% 0.00in /  0mm
Buffalo, New York, USA
Compliments of Weather Underground - 2.5 mb